AAL2025 TXKF-KJFK
Flight info
| Callsign | AAL2025 |
|---|---|
| Flight time | 2h 4m |
| Altitude | 37000 |
| Route | BORNN1 BOVIC DCT DARUX DCT SAVIK/N0469F370 Y486 MOUGH Y495 CAMRN |
| Aircraft | MD11/H-SDE1E2E3FGHIJ2J3J4J5M1RWXY/LB1D1 |
Departure
| Time | 2026-04-26 16:39 |
|---|---|
| Airport | L.F. Wade International Airport (TXKF) |
Arrival
| Time | 2026-04-26 18:43 |
|---|---|
| Airport | John F. Kennedy International Airport (KJFK) |
| Time | Latitude | Longitude | Altitude | Speed | Heading |
|---|---|---|---|---|---|
| 2026-04-26 16:17 | 32.36478 | -64.66855 | 35 ft | 0 kts | 31° |
| 2026-04-26 16:30 | 32.36477 | -64.66855 | 35 ft | 0 kts | 31° |
| 2026-04-26 16:33 | 32.36483 | -64.66855 | 35 ft | 2 kts | 14° |
| 2026-04-26 16:33 | 32.36504 | -64.66859 | 35 ft | 1 kts | 335° |
| 2026-04-26 16:34 | 32.36510 | -64.66870 | 35 ft | 1 kts | 304° |
| 2026-04-26 16:34 | 32.36511 | -64.66876 | 35 ft | 3 kts | 296° |
| 2026-04-26 16:34 | 32.36533 | -64.66933 | 35 ft | 11 kts | 286° |
| 2026-04-26 16:34 | 32.36529 | -64.66965 | 35 ft | 2 kts | 228° |
| 2026-04-26 16:35 | 32.36498 | -64.66977 | 35 ft | 10 kts | 200° |
| 2026-04-26 16:35 | 32.36437 | -64.67002 | 35 ft | 3 kts | 212° |
| 2026-04-26 16:35 | 32.36411 | -64.67044 | 35 ft | 10 kts | 252° |
| 2026-04-26 16:35 | 32.36425 | -64.67173 | 34 ft | 22 kts | 282° |
| 2026-04-26 16:36 | 32.36463 | -64.67385 | 32 ft | 24 kts | 282° |
| 2026-04-26 16:36 | 32.36499 | -64.67591 | 34 ft | 25 kts | 282° |
| 2026-04-26 16:36 | 32.36533 | -64.67795 | 34 ft | 26 kts | 281° |
| 2026-04-26 16:36 | 32.36569 | -64.68010 | 34 ft | 26 kts | 280° |
| 2026-04-26 16:37 | 32.36609 | -64.68239 | 35 ft | 31 kts | 282° |
| 2026-04-26 16:37 | 32.36652 | -64.68488 | 34 ft | 31 kts | 282° |
| 2026-04-26 16:37 | 32.36691 | -64.68714 | 33 ft | 27 kts | 282° |
| 2026-04-26 16:37 | 32.36715 | -64.68861 | 34 ft | 21 kts | 271° |
| 2026-04-26 16:38 | 32.36641 | -64.69063 | 34 ft | 14 kts | 213° |
| 2026-04-26 16:38 | 32.36625 | -64.69065 | 33 ft | 1 kts | 172° |
| 2026-04-26 16:38 | 32.36612 | -64.69052 | 33 ft | 4 kts | 131° |
| 2026-04-26 16:38 | 32.36606 | -64.69015 | 33 ft | 9 kts | 102° |
| 2026-04-26 16:39 | 32.36555 | -64.68727 | 36 ft | 83 kts | 101° |
| 2026-04-26 16:39 | 32.36371 | -64.67656 | 51 ft | 176 kts | 103° |
| 2026-04-26 16:39 | 32.36121 | -64.66172 | 955 ft | 194 kts | 101° |
| 2026-04-26 16:39 | 32.35811 | -64.64541 | 2046 ft | 207 kts | 102° |
| 2026-04-26 16:40 | 32.35461 | -64.62836 | 2890 ft | 219 kts | 102° |
| 2026-04-26 16:40 | 32.35117 | -64.61057 | 3701 ft | 232 kts | 101° |
| 2026-04-26 16:40 | 32.34849 | -64.59309 | 4069 ft | 201 kts | 96° |
| 2026-04-26 16:40 | 32.34996 | -64.57628 | 4379 ft | 225 kts | 63° |
| 2026-04-26 16:41 | 32.36124 | -64.56138 | 4749 ft | 260 kts | 26° |
| 2026-04-26 16:41 | 32.37836 | -64.55442 | 5815 ft | 263 kts | 8° |
| 2026-04-26 16:41 | 32.39641 | -64.55077 | 7028 ft | 260 kts | 5° |
| 2026-04-26 16:41 | 32.41455 | -64.54781 | 8051 ft | 272 kts | 2° |
| 2026-04-26 16:42 | 32.43350 | -64.54755 | 8561 ft | 271 kts | 348° |
| 2026-04-26 16:42 | 32.45104 | -64.55482 | 9078 ft | 267 kts | 324° |
| 2026-04-26 16:42 | 32.46529 | -64.56883 | 9606 ft | 267 kts | 313° |
| 2026-04-26 16:42 | 32.47825 | -64.58476 | 10117 ft | 271 kts | 311° |
| 2026-04-26 16:43 | 32.49144 | -64.60159 | 10602 ft | 293 kts | 311° |
| 2026-04-26 16:43 | 32.50587 | -64.61999 | 11106 ft | 317 kts | 311° |
| 2026-04-26 16:43 | 32.52146 | -64.63975 | 11602 ft | 339 kts | 311° |
| 2026-04-26 16:43 | 32.53810 | -64.66071 | 12107 ft | 357 kts | 311° |
| 2026-04-26 16:44 | 32.55530 | -64.68226 | 12618 ft | 362 kts | 311° |
| 2026-04-26 16:44 | 32.57271 | -64.70400 | 13128 ft | 365 kts | 312° |
| 2026-04-26 16:44 | 32.59029 | -64.72594 | 13672 ft | 368 kts | 311° |
| 2026-04-26 16:44 | 32.60701 | -64.74910 | 14153 ft | 370 kts | 303° |
| 2026-04-26 16:45 | 32.61834 | -64.77642 | 14639 ft | 370 kts | 288° |
| 2026-04-26 16:45 | 32.62526 | -64.80594 | 15115 ft | 372 kts | 283° |
| 2026-04-26 16:45 | 32.63065 | -64.83611 | 15603 ft | 375 kts | 281° |
| 2026-04-26 16:45 | 32.63572 | -64.86647 | 16109 ft | 377 kts | 281° |
| 2026-04-26 16:46 | 32.64094 | -64.89709 | 16593 ft | 379 kts | 282° |
| 2026-04-26 16:46 | 32.64631 | -64.92742 | 17112 ft | 381 kts | 282° |
| 2026-04-26 16:46 | 32.65192 | -64.95827 | 17626 ft | 384 kts | 283° |
| 2026-04-26 16:46 | 32.65768 | -64.98931 | 18165 ft | 386 kts | 283° |
| 2026-04-26 16:47 | 32.66352 | -65.02053 | 18655 ft | 389 kts | 283° |
| 2026-04-26 16:47 | 32.66943 | -65.05197 | 19116 ft | 392 kts | 283° |
| 2026-04-26 16:47 | 32.67540 | -65.08368 | 19578 ft | 395 kts | 283° |
| 2026-04-26 16:47 | 32.68141 | -65.11561 | 20051 ft | 401 kts | 283° |
| 2026-04-26 16:48 | 32.68755 | -65.14829 | 20544 ft | 410 kts | 283° |
| 2026-04-26 16:48 | 32.69382 | -65.18169 | 21034 ft | 419 kts | 283° |
| 2026-04-26 16:48 | 32.70027 | -65.21599 | 21542 ft | 430 kts | 283° |
| 2026-04-26 16:48 | 32.70884 | -65.25027 | 22037 ft | 439 kts | 292° |
| 2026-04-26 16:49 | 32.72323 | -65.28230 | 22561 ft | 443 kts | 302° |
| 2026-04-26 16:49 | 32.74145 | -65.31217 | 23088 ft | 449 kts | 307° |
| 2026-04-26 16:49 | 32.76116 | -65.34115 | 23625 ft | 453 kts | 308° |
| 2026-04-26 16:49 | 32.78134 | -65.37018 | 24084 ft | 457 kts | 308° |
| 2026-04-26 16:50 | 32.80150 | -65.39953 | 24544 ft | 460 kts | 308° |
| 2026-04-26 16:50 | 32.82160 | -65.42940 | 25017 ft | 463 kts | 307° |
| 2026-04-26 16:50 | 32.84155 | -65.45955 | 25463 ft | 466 kts | 307° |
| 2026-04-26 16:50 | 32.86152 | -65.48997 | 25954 ft | 468 kts | 307° |
| 2026-04-26 16:51 | 32.88171 | -65.52065 | 26445 ft | 472 kts | 307° |
| 2026-04-26 16:51 | 32.90200 | -65.55142 | 26938 ft | 474 kts | 307° |
| 2026-04-26 16:51 | 32.92242 | -65.58233 | 27438 ft | 476 kts | 307° |
| 2026-04-26 16:51 | 32.94240 | -65.61256 | 27940 ft | 476 kts | 307° |
| 2026-04-26 16:52 | 32.96336 | -65.64431 | 28476 ft | 477 kts | 307° |
| 2026-04-26 16:52 | 32.97694 | -65.66488 | 28841 ft | 476 kts | 307° |
| 2026-04-26 16:52 | 33.00404 | -65.70597 | 29547 ft | 476 kts | 307° |
| 2026-04-26 16:52 | 33.02446 | -65.73697 | 30102 ft | 475 kts | 307° |
| 2026-04-26 16:53 | 33.04484 | -65.76794 | 30569 ft | 474 kts | 307° |
| 2026-04-26 16:53 | 33.06511 | -65.79876 | 31064 ft | 472 kts | 307° |
| 2026-04-26 16:53 | 33.08532 | -65.82953 | 31550 ft | 470 kts | 307° |
| 2026-04-26 16:53 | 33.10541 | -65.86013 | 32060 ft | 467 kts | 307° |
| 2026-04-26 16:54 | 33.12540 | -65.89060 | 32547 ft | 465 kts | 307° |
| 2026-04-26 16:54 | 33.14529 | -65.92095 | 33071 ft | 462 kts | 306° |
| 2026-04-26 16:54 | 33.16502 | -65.95109 | 33599 ft | 459 kts | 306° |
| 2026-04-26 16:54 | 33.18458 | -65.98097 | 34127 ft | 456 kts | 306° |
| 2026-04-26 16:55 | 33.20431 | -66.01059 | 34597 ft | 453 kts | 308° |
| 2026-04-26 16:55 | 33.22519 | -66.03861 | 35078 ft | 451 kts | 312° |
| 2026-04-26 16:55 | 33.24808 | -66.06411 | 35565 ft | 449 kts | 317° |
| 2026-04-26 16:55 | 33.27304 | -66.08654 | 35969 ft | 450 kts | 323° |
| 2026-04-26 16:56 | 33.32830 | -66.12177 | 36740 ft | 452 kts | 334° |
| 2026-04-26 16:56 | 33.35805 | -66.13443 | 37044 ft | 455 kts | 338° |
| 2026-04-26 16:57 | 33.41916 | -66.15502 | 37123 ft | 454 kts | 341° |
| 2026-04-26 16:57 | 33.51069 | -66.18491 | 37125 ft | 461 kts | 340° |
| 2026-04-26 16:58 | 33.56210 | -66.20240 | 37126 ft | 462 kts | 340° |
| 2026-04-26 16:59 | 33.66515 | -66.23786 | 37122 ft | 460 kts | 340° |
| 2026-04-26 17:00 | 33.78799 | -66.28066 | 37127 ft | 458 kts | 339° |
| 2026-04-26 17:00 | 33.87924 | -66.31300 | 37124 ft | 457 kts | 339° |
| 2026-04-26 17:01 | 33.94028 | -66.33465 | 37120 ft | 456 kts | 339° |
| 2026-04-26 17:01 | 34.00122 | -66.35627 | 37112 ft | 456 kts | 339° |
| 2026-04-26 17:02 | 34.06206 | -66.37789 | 37119 ft | 455 kts | 339° |
| 2026-04-26 17:02 | 34.12285 | -66.39953 | 37119 ft | 455 kts | 339° |
| 2026-04-26 17:03 | 34.18358 | -66.42118 | 37117 ft | 455 kts | 339° |
| 2026-04-26 17:03 | 34.24430 | -66.44286 | 37117 ft | 454 kts | 339° |
| 2026-04-26 17:04 | 34.30454 | -66.46439 | 37115 ft | 454 kts | 339° |
| 2026-04-26 17:04 | 34.36509 | -66.48607 | 37112 ft | 454 kts | 339° |
| 2026-04-26 17:05 | 34.41517 | -66.50403 | 37114 ft | 453 kts | 339° |
| 2026-04-26 17:05 | 34.48610 | -66.52950 | 37110 ft | 453 kts | 339° |
| 2026-04-26 17:06 | 34.53631 | -66.54757 | 37108 ft | 453 kts | 339° |
| 2026-04-26 17:06 | 34.59666 | -66.56940 | 37110 ft | 452 kts | 339° |
| 2026-04-26 17:07 | 34.65698 | -66.59121 | 37110 ft | 452 kts | 339° |
| 2026-04-26 17:07 | 34.71730 | -66.61301 | 37108 ft | 452 kts | 339° |
| 2026-04-26 17:08 | 34.77752 | -66.63497 | 37108 ft | 451 kts | 338° |
| 2026-04-26 17:08 | 34.83519 | -66.66378 | 37106 ft | 445 kts | 327° |
| 2026-04-26 17:09 | 34.87730 | -66.69878 | 37103 ft | 439 kts | 317° |
| 2026-04-26 17:09 | 34.92495 | -66.76268 | 37099 ft | 435 kts | 303° |
| 2026-04-26 17:10 | 34.95605 | -66.82529 | 37097 ft | 434 kts | 298° |
| 2026-04-26 17:10 | 34.98543 | -66.88962 | 37095 ft | 434 kts | 298° |
| 2026-04-26 17:11 | 35.01520 | -66.95375 | 37086 ft | 434 kts | 299° |
| 2026-04-26 17:11 | 35.04532 | -67.01776 | 37091 ft | 434 kts | 299° |
| 2026-04-26 17:12 | 35.09061 | -67.11380 | 37084 ft | 434 kts | 299° |
| 2026-04-26 17:13 | 35.13576 | -67.20980 | 37084 ft | 435 kts | 299° |
| 2026-04-26 17:14 | 35.18066 | -67.30558 | 37080 ft | 435 kts | 299° |
| 2026-04-26 17:14 | 35.22570 | -67.40193 | 37081 ft | 435 kts | 299° |
| 2026-04-26 17:15 | 35.27064 | -67.49833 | 37077 ft | 435 kts | 298° |
| 2026-04-26 17:16 | 35.30059 | -67.56273 | 37070 ft | 435 kts | 298° |
| 2026-04-26 17:16 | 35.33049 | -67.62714 | 37072 ft | 435 kts | 298° |
| 2026-04-26 17:17 | 35.36023 | -67.69161 | 37069 ft | 435 kts | 298° |
| 2026-04-26 17:18 | 35.45139 | -67.88990 | 37059 ft | 435 kts | 298° |
| 2026-04-26 17:19 | 35.49099 | -67.97605 | 37064 ft | 435 kts | 298° |
| 2026-04-26 17:19 | 35.52349 | -68.04693 | 37052 ft | 435 kts | 298° |
| 2026-04-26 17:20 | 35.54815 | -68.10080 | 37052 ft | 435 kts | 298° |
| 2026-04-26 17:20 | 35.58279 | -68.17663 | 37050 ft | 436 kts | 298° |
| 2026-04-26 17:21 | 35.61243 | -68.24156 | 37040 ft | 437 kts | 294° |
| 2026-04-26 17:21 | 35.64212 | -68.30685 | 37045 ft | 438 kts | 294° |
| 2026-04-26 17:22 | 35.67181 | -68.37225 | 37047 ft | 438 kts | 294° |
| 2026-04-26 17:22 | 35.70144 | -68.43764 | 37043 ft | 438 kts | 294° |
| 2026-04-26 17:23 | 35.73104 | -68.50306 | 37042 ft | 438 kts | 294° |
| 2026-04-26 17:23 | 35.76059 | -68.56866 | 37044 ft | 438 kts | 294° |
| 2026-04-26 17:24 | 35.78971 | -68.63390 | 37040 ft | 438 kts | 294° |
| 2026-04-26 17:24 | 35.81916 | -68.69969 | 37035 ft | 438 kts | 294° |
| 2026-04-26 17:25 | 35.84861 | -68.76534 | 37034 ft | 438 kts | 294° |
| 2026-04-26 17:25 | 35.87804 | -68.83104 | 37028 ft | 437 kts | 294° |
| 2026-04-26 17:26 | 35.90744 | -68.89678 | 37028 ft | 437 kts | 294° |
| 2026-04-26 17:26 | 35.93678 | -68.96254 | 37025 ft | 437 kts | 294° |
| 2026-04-26 17:27 | 35.96604 | -69.02824 | 37022 ft | 437 kts | 294° |
| 2026-04-26 17:27 | 35.99508 | -69.09357 | 37020 ft | 436 kts | 294° |
| 2026-04-26 17:28 | 36.02425 | -69.15933 | 37016 ft | 436 kts | 294° |
| 2026-04-26 17:28 | 36.05337 | -69.22510 | 37016 ft | 436 kts | 294° |
| 2026-04-26 17:29 | 36.07772 | -69.28021 | 37013 ft | 436 kts | 294° |
| 2026-04-26 17:29 | 36.11143 | -69.35665 | 37014 ft | 435 kts | 294° |
| 2026-04-26 17:30 | 36.14134 | -69.42195 | 37012 ft | 439 kts | 299° |
| 2026-04-26 17:30 | 36.16029 | -69.45176 | 37012 ft | 445 kts | 307° |
| 2026-04-26 17:31 | 36.28583 | -69.57186 | 37005 ft | 453 kts | 316° |
| 2026-04-26 17:32 | 36.33577 | -69.61943 | 37004 ft | 452 kts | 315° |
| 2026-04-26 17:32 | 36.38526 | -69.66757 | 37002 ft | 452 kts | 315° |
| 2026-04-26 17:33 | 36.43469 | -69.71585 | 36999 ft | 451 kts | 315° |
| 2026-04-26 17:34 | 36.50870 | -69.78820 | 36998 ft | 450 kts | 315° |
| 2026-04-26 17:34 | 36.55779 | -69.83626 | 36999 ft | 449 kts | 315° |
| 2026-04-26 17:35 | 36.60683 | -69.88436 | 36997 ft | 448 kts | 315° |
| 2026-04-26 17:35 | 36.65542 | -69.93209 | 36991 ft | 447 kts | 315° |
| 2026-04-26 17:36 | 36.70420 | -69.98008 | 36990 ft | 446 kts | 315° |
| 2026-04-26 17:36 | 36.75283 | -70.02802 | 36987 ft | 445 kts | 315° |
| 2026-04-26 17:37 | 36.80077 | -70.07535 | 36987 ft | 444 kts | 315° |
| 2026-04-26 17:37 | 36.84908 | -70.12334 | 36987 ft | 444 kts | 315° |
| 2026-04-26 17:38 | 36.92145 | -70.19534 | 36991 ft | 443 kts | 315° |
| 2026-04-26 17:38 | 36.96972 | -70.24330 | 36981 ft | 443 kts | 315° |
| 2026-04-26 17:39 | 37.01801 | -70.29133 | 36982 ft | 443 kts | 315° |
| 2026-04-26 17:39 | 37.06594 | -70.33908 | 36981 ft | 443 kts | 315° |
| 2026-04-26 17:40 | 37.09822 | -70.37129 | 36973 ft | 443 kts | 315° |
| 2026-04-26 17:40 | 37.16247 | -70.43550 | 36963 ft | 444 kts | 315° |
| 2026-04-26 17:41 | 37.21079 | -70.48390 | 36970 ft | 444 kts | 314° |
| 2026-04-26 17:41 | 37.25917 | -70.53243 | 36964 ft | 445 kts | 314° |
| 2026-04-26 17:42 | 37.29941 | -70.57286 | 36964 ft | 446 kts | 314° |
| 2026-04-26 17:42 | 37.34921 | -70.62297 | 36957 ft | 447 kts | 314° |
| 2026-04-26 17:43 | 37.39775 | -70.67190 | 36953 ft | 447 kts | 314° |
| 2026-04-26 17:43 | 37.44636 | -70.72098 | 36958 ft | 448 kts | 314° |
| 2026-04-26 17:44 | 37.49458 | -70.76994 | 36955 ft | 449 kts | 314° |
| 2026-04-26 17:44 | 37.54323 | -70.81949 | 36955 ft | 450 kts | 314° |
| 2026-04-26 17:45 | 37.59195 | -70.86902 | 36949 ft | 450 kts | 314° |
| 2026-04-26 17:45 | 37.64084 | -70.91874 | 36953 ft | 451 kts | 314° |
| 2026-04-26 17:46 | 37.69092 | -70.96596 | 36448 ft | 448 kts | 320° |
| 2026-04-26 17:46 | 37.71733 | -70.98639 | 35936 ft | 444 kts | 322° |
| 2026-04-26 17:46 | 37.74412 | -71.00604 | 35436 ft | 446 kts | 322° |
| 2026-04-26 17:47 | 37.77105 | -71.02558 | 34944 ft | 448 kts | 323° |
| 2026-04-26 17:47 | 37.78903 | -71.03867 | 34616 ft | 450 kts | 323° |
| 2026-04-26 17:47 | 37.82539 | -71.06538 | 33983 ft | 453 kts | 322° |
| 2026-04-26 17:47 | 37.85270 | -71.08562 | 33445 ft | 456 kts | 322° |
| 2026-04-26 17:48 | 37.88008 | -71.10601 | 32916 ft | 458 kts | 322° |
| 2026-04-26 17:48 | 37.90757 | -71.12655 | 32398 ft | 460 kts | 323° |
| 2026-04-26 17:48 | 37.93520 | -71.14723 | 31888 ft | 462 kts | 323° |
| 2026-04-26 17:48 | 37.96292 | -71.16800 | 31382 ft | 464 kts | 323° |
| 2026-04-26 17:49 | 37.99044 | -71.18863 | 30881 ft | 466 kts | 323° |
| 2026-04-26 17:49 | 38.01840 | -71.20962 | 30413 ft | 468 kts | 323° |
| 2026-04-26 17:49 | 38.04653 | -71.23075 | 29912 ft | 470 kts | 323° |
| 2026-04-26 17:49 | 38.07476 | -71.25196 | 29362 ft | 472 kts | 323° |
| 2026-04-26 17:50 | 38.10303 | -71.27323 | 28818 ft | 473 kts | 324° |
| 2026-04-26 17:50 | 38.13141 | -71.29459 | 28284 ft | 474 kts | 324° |
| 2026-04-26 17:50 | 38.15981 | -71.31599 | 27758 ft | 475 kts | 324° |
| 2026-04-26 17:50 | 38.18831 | -71.33749 | 27251 ft | 476 kts | 324° |
| 2026-04-26 17:51 | 38.21676 | -71.35896 | 26744 ft | 476 kts | 324° |
| 2026-04-26 17:51 | 38.24528 | -71.38051 | 26243 ft | 477 kts | 324° |
| 2026-04-26 17:51 | 38.27375 | -71.40204 | 25751 ft | 475 kts | 324° |
| 2026-04-26 17:51 | 38.30198 | -71.42339 | 25302 ft | 468 kts | 324° |
| 2026-04-26 17:52 | 38.32954 | -71.44419 | 24953 ft | 455 kts | 324° |
| 2026-04-26 17:52 | 38.35628 | -71.46445 | 24604 ft | 451 kts | 324° |
| 2026-04-26 17:52 | 38.38322 | -71.48491 | 24261 ft | 448 kts | 324° |
| 2026-04-26 17:52 | 38.40984 | -71.50526 | 24038 ft | 445 kts | 324° |
| 2026-04-26 17:53 | 38.43628 | -71.52551 | 23984 ft | 443 kts | 324° |
| 2026-04-26 17:53 | 38.46274 | -71.54578 | 23971 ft | 443 kts | 324° |
| 2026-04-26 17:53 | 38.48921 | -71.56603 | 23784 ft | 445 kts | 324° |
| 2026-04-26 17:54 | 38.54169 | -71.60608 | 22751 ft | 428 kts | 324° |
| 2026-04-26 17:54 | 38.56675 | -71.62514 | 22225 ft | 411 kts | 324° |
| 2026-04-26 17:54 | 38.59086 | -71.64350 | 21710 ft | 396 kts | 324° |
| 2026-04-26 17:54 | 38.61414 | -71.66127 | 21204 ft | 383 kts | 324° |
| 2026-04-26 17:55 | 38.63665 | -71.67849 | 20703 ft | 372 kts | 324° |
| 2026-04-26 17:55 | 38.65863 | -71.69536 | 20262 ft | 365 kts | 324° |
| 2026-04-26 17:55 | 38.68027 | -71.71199 | 19902 ft | 362 kts | 325° |
| 2026-04-26 17:55 | 38.70177 | -71.72853 | 19546 ft | 358 kts | 325° |
| 2026-04-26 17:56 | 38.72306 | -71.74491 | 19192 ft | 355 kts | 325° |
| 2026-04-26 17:56 | 38.76496 | -71.77717 | 19012 ft | 350 kts | 325° |
| 2026-04-26 17:57 | 38.80668 | -71.80931 | 19012 ft | 349 kts | 326° |
| 2026-04-26 17:57 | 38.82717 | -71.82510 | 19009 ft | 349 kts | 326° |
| 2026-04-26 17:57 | 38.84800 | -71.84117 | 18862 ft | 351 kts | 326° |
| 2026-04-26 17:57 | 38.86881 | -71.85724 | 18391 ft | 347 kts | 326° |
| 2026-04-26 17:58 | 38.92985 | -71.90435 | 16841 ft | 337 kts | 326° |
| 2026-04-26 17:59 | 38.96965 | -71.93515 | 15848 ft | 332 kts | 326° |
| 2026-04-26 17:59 | 38.98943 | -71.95048 | 15352 ft | 330 kts | 326° |
| 2026-04-26 17:59 | 39.00851 | -71.96668 | 14865 ft | 327 kts | 322° |
| 2026-04-26 17:59 | 39.02641 | -71.98448 | 14409 ft | 325 kts | 319° |
| 2026-04-26 18:00 | 39.04390 | -72.00280 | 14010 ft | 323 kts | 319° |
| 2026-04-26 18:00 | 39.06125 | -72.02118 | 13642 ft | 322 kts | 319° |
| 2026-04-26 18:00 | 39.07851 | -72.03948 | 13247 ft | 322 kts | 319° |
| 2026-04-26 18:00 | 39.09576 | -72.05770 | 12928 ft | 318 kts | 319° |
| 2026-04-26 18:01 | 39.11288 | -72.07577 | 12862 ft | 319 kts | 319° |
| 2026-04-26 18:01 | 39.12979 | -72.09360 | 12852 ft | 318 kts | 319° |
| 2026-04-26 18:01 | 39.14694 | -72.11168 | 12851 ft | 318 kts | 319° |
| 2026-04-26 18:01 | 39.16403 | -72.12972 | 12862 ft | 314 kts | 319° |
| 2026-04-26 18:02 | 39.18084 | -72.14747 | 12857 ft | 311 kts | 319° |
| 2026-04-26 18:02 | 39.19196 | -72.15921 | 12718 ft | 312 kts | 319° |
| 2026-04-26 18:02 | 39.21431 | -72.18284 | 12043 ft | 309 kts | 319° |
| 2026-04-26 18:02 | 39.23095 | -72.20042 | 11539 ft | 308 kts | 319° |
| 2026-04-26 18:03 | 39.24746 | -72.21786 | 11112 ft | 307 kts | 319° |
| 2026-04-26 18:03 | 39.26399 | -72.23533 | 10753 ft | 306 kts | 319° |
| 2026-04-26 18:03 | 39.28049 | -72.25278 | 10392 ft | 306 kts | 319° |
| 2026-04-26 18:03 | 39.29691 | -72.27017 | 10047 ft | 305 kts | 319° |
| 2026-04-26 18:04 | 39.31335 | -72.28758 | 9906 ft | 304 kts | 318° |
| 2026-04-26 18:04 | 39.32894 | -72.30407 | 9872 ft | 284 kts | 318° |
| 2026-04-26 18:04 | 39.34386 | -72.31987 | 9873 ft | 273 kts | 319° |
| 2026-04-26 18:05 | 39.37293 | -72.35074 | 9188 ft | 268 kts | 320° |
| 2026-04-26 18:05 | 39.38728 | -72.36602 | 8803 ft | 267 kts | 320° |
| 2026-04-26 18:05 | 39.40161 | -72.38127 | 8429 ft | 265 kts | 321° |
| 2026-04-26 18:05 | 39.41582 | -72.39641 | 8066 ft | 264 kts | 321° |
| 2026-04-26 18:06 | 39.42999 | -72.41149 | 7910 ft | 263 kts | 322° |
| 2026-04-26 18:06 | 39.44413 | -72.42654 | 7894 ft | 263 kts | 322° |
| 2026-04-26 18:06 | 39.45826 | -72.44160 | 7888 ft | 263 kts | 322° |
| 2026-04-26 18:06 | 39.47241 | -72.45666 | 7892 ft | 263 kts | 322° |
| 2026-04-26 18:07 | 39.48636 | -72.47153 | 7888 ft | 263 kts | 322° |
| 2026-04-26 18:07 | 39.50049 | -72.48662 | 7761 ft | 263 kts | 323° |
| 2026-04-26 18:07 | 39.51460 | -72.50169 | 7386 ft | 262 kts | 323° |
| 2026-04-26 18:07 | 39.52409 | -72.51183 | 7145 ft | 261 kts | 324° |
| 2026-04-26 18:08 | 39.54260 | -72.53162 | 6656 ft | 259 kts | 324° |
| 2026-04-26 18:08 | 39.55651 | -72.54649 | 6282 ft | 258 kts | 325° |
| 2026-04-26 18:08 | 39.57036 | -72.56129 | 5899 ft | 258 kts | 325° |
| 2026-04-26 18:08 | 39.58423 | -72.57613 | 5507 ft | 258 kts | 326° |
| 2026-04-26 18:09 | 39.59810 | -72.59096 | 5136 ft | 259 kts | 325° |
| 2026-04-26 18:09 | 39.61200 | -72.60584 | 4937 ft | 259 kts | 326° |
| 2026-04-26 18:09 | 39.62593 | -72.62077 | 4915 ft | 260 kts | 326° |
| 2026-04-26 18:09 | 39.63988 | -72.63570 | 4911 ft | 260 kts | 326° |
| 2026-04-26 18:10 | 39.65380 | -72.65063 | 4911 ft | 260 kts | 325° |
| 2026-04-26 18:10 | 39.66728 | -72.66516 | 4903 ft | 241 kts | 326° |
| 2026-04-26 18:10 | 39.67958 | -72.67850 | 4901 ft | 226 kts | 326° |
| 2026-04-26 18:10 | 39.69162 | -72.69141 | 4913 ft | 224 kts | 326° |
| 2026-04-26 18:11 | 39.70358 | -72.70425 | 4916 ft | 222 kts | 326° |
| 2026-04-26 18:11 | 39.71543 | -72.71716 | 4921 ft | 223 kts | 324° |
| 2026-04-26 18:11 | 39.72693 | -72.73065 | 4921 ft | 223 kts | 322° |
| 2026-04-26 18:11 | 39.73799 | -72.74491 | 4921 ft | 224 kts | 319° |
| 2026-04-26 18:12 | 39.74851 | -72.75997 | 4923 ft | 226 kts | 316° |
| 2026-04-26 18:12 | 39.75843 | -72.77587 | 4924 ft | 227 kts | 312° |
| 2026-04-26 18:12 | 39.76771 | -72.79251 | 4922 ft | 228 kts | 309° |
| 2026-04-26 18:12 | 39.77632 | -72.80989 | 4922 ft | 229 kts | 306° |
| 2026-04-26 18:13 | 39.78419 | -72.82789 | 4924 ft | 230 kts | 303° |
| 2026-04-26 18:13 | 39.79134 | -72.84653 | 4925 ft | 231 kts | 300° |
| 2026-04-26 18:13 | 39.79770 | -72.86577 | 4931 ft | 231 kts | 296° |
| 2026-04-26 18:13 | 39.80142 | -72.87860 | 4943 ft | 228 kts | 294° |
| 2026-04-26 18:14 | 39.80779 | -72.90495 | 4924 ft | 228 kts | 290° |
| 2026-04-26 18:14 | 39.81157 | -72.92507 | 4935 ft | 230 kts | 287° |
| 2026-04-26 18:14 | 39.81451 | -72.94548 | 4933 ft | 230 kts | 283° |
| 2026-04-26 18:14 | 39.81657 | -72.96591 | 4931 ft | 231 kts | 280° |
| 2026-04-26 18:15 | 39.81778 | -72.98674 | 4936 ft | 232 kts | 277° |
| 2026-04-26 18:15 | 39.81808 | -73.00775 | 4942 ft | 233 kts | 274° |
| 2026-04-26 18:15 | 39.81772 | -73.02884 | 4936 ft | 233 kts | 272° |
| 2026-04-26 18:15 | 39.81720 | -73.04987 | 4936 ft | 233 kts | 272° |
| 2026-04-26 18:16 | 39.81664 | -73.07092 | 4936 ft | 233 kts | 272° |
| 2026-04-26 18:16 | 39.81552 | -73.11021 | 4927 ft | 208 kts | 272° |
| 2026-04-26 18:16 | 39.81502 | -73.12896 | 4940 ft | 206 kts | 272° |
| 2026-04-26 18:17 | 39.81452 | -73.14760 | 4936 ft | 206 kts | 272° |
| 2026-04-26 18:17 | 39.81402 | -73.16628 | 4944 ft | 206 kts | 272° |
| 2026-04-26 18:17 | 39.81349 | -73.18492 | 4936 ft | 206 kts | 272° |
| 2026-04-26 18:17 | 39.81297 | -73.20361 | 4938 ft | 206 kts | 272° |
| 2026-04-26 18:18 | 39.81253 | -73.22225 | 4937 ft | 206 kts | 274° |
| 2026-04-26 18:18 | 39.81293 | -73.24083 | 4933 ft | 204 kts | 279° |
| 2026-04-26 18:18 | 39.81465 | -73.25883 | 4941 ft | 203 kts | 285° |
| 2026-04-26 18:18 | 39.81779 | -73.27662 | 4823 ft | 202 kts | 291° |
| 2026-04-26 18:19 | 39.82227 | -73.29375 | 4322 ft | 197 kts | 297° |
| 2026-04-26 18:19 | 39.82739 | -73.31024 | 3930 ft | 197 kts | 298° |
| 2026-04-26 18:19 | 39.83260 | -73.32675 | 3545 ft | 197 kts | 298° |
| 2026-04-26 18:19 | 39.83783 | -73.34326 | 3161 ft | 197 kts | 298° |
| 2026-04-26 18:20 | 39.84306 | -73.35977 | 2957 ft | 197 kts | 298° |
| 2026-04-26 18:20 | 39.84830 | -73.37631 | 2933 ft | 198 kts | 298° |
| 2026-04-26 18:20 | 39.85354 | -73.39284 | 2938 ft | 198 kts | 298° |
| 2026-04-26 18:20 | 39.85524 | -73.39820 | 2942 ft | 198 kts | 298° |
| 2026-04-26 18:21 | 39.86402 | -73.42590 | 2945 ft | 197 kts | 298° |
| 2026-04-26 18:21 | 39.86925 | -73.44241 | 2939 ft | 197 kts | 298° |
| 2026-04-26 18:21 | 39.87448 | -73.45889 | 2958 ft | 197 kts | 298° |
| 2026-04-26 18:21 | 39.87968 | -73.47533 | 2941 ft | 197 kts | 298° |
| 2026-04-26 18:22 | 39.88482 | -73.49159 | 2943 ft | 197 kts | 298° |
| 2026-04-26 18:22 | 39.89003 | -73.50804 | 2943 ft | 197 kts | 298° |
| 2026-04-26 18:22 | 39.89523 | -73.52449 | 2944 ft | 197 kts | 298° |
| 2026-04-26 18:22 | 39.90044 | -73.54101 | 2951 ft | 197 kts | 298° |
| 2026-04-26 18:23 | 39.90567 | -73.55756 | 2960 ft | 197 kts | 298° |
| 2026-04-26 18:23 | 39.91087 | -73.57404 | 2961 ft | 197 kts | 298° |
| 2026-04-26 18:23 | 39.91609 | -73.59056 | 2940 ft | 197 kts | 298° |
| 2026-04-26 18:23 | 39.92137 | -73.60699 | 2961 ft | 196 kts | 300° |
| 2026-04-26 18:24 | 39.92714 | -73.62284 | 2966 ft | 195 kts | 302° |
| 2026-04-26 18:24 | 39.93309 | -73.63872 | 2947 ft | 195 kts | 302° |
| 2026-04-26 18:24 | 39.93907 | -73.65461 | 2941 ft | 195 kts | 302° |
| 2026-04-26 18:24 | 39.94505 | -73.67045 | 2958 ft | 195 kts | 302° |
| 2026-04-26 18:25 | 39.95105 | -73.68633 | 2756 ft | 195 kts | 302° |
| 2026-04-26 18:25 | 39.95703 | -73.70215 | 2365 ft | 194 kts | 302° |
| 2026-04-26 18:25 | 39.96294 | -73.71779 | 1997 ft | 190 kts | 302° |
| 2026-04-26 18:25 | 39.96877 | -73.73321 | 1955 ft | 189 kts | 302° |
| 2026-04-26 18:26 | 39.97457 | -73.74855 | 1947 ft | 189 kts | 302° |
| 2026-04-26 18:26 | 39.98039 | -73.76391 | 1951 ft | 189 kts | 302° |
| 2026-04-26 18:26 | 39.98425 | -73.77417 | 1956 ft | 189 kts | 302° |
| 2026-04-26 18:26 | 39.99002 | -73.78961 | 1953 ft | 189 kts | 302° |
| 2026-04-26 18:27 | 39.99578 | -73.80499 | 1961 ft | 189 kts | 302° |
| 2026-04-26 18:27 | 40.00156 | -73.82041 | 1965 ft | 189 kts | 302° |
| 2026-04-26 18:27 | 40.00946 | -73.84056 | 1967 ft | 187 kts | 308° |
| 2026-04-26 18:27 | 40.01481 | -73.84940 | 1956 ft | 182 kts | 322° |
| 2026-04-26 18:28 | 40.02511 | -73.85806 | 1967 ft | 173 kts | 346° |
| 2026-04-26 18:28 | 40.03664 | -73.86094 | 1982 ft | 170 kts | 359° |
| 2026-04-26 18:28 | 40.04793 | -73.86241 | 1951 ft | 153 kts | 360° |
| 2026-04-26 18:28 | 40.05843 | -73.86367 | 1967 ft | 150 kts | 1° |
| 2026-04-26 18:29 | 40.06882 | -73.86483 | 1970 ft | 150 kts | 1° |
| 2026-04-26 18:29 | 40.07921 | -73.86594 | 1968 ft | 150 kts | 1° |
| 2026-04-26 18:29 | 40.08961 | -73.86703 | 1977 ft | 150 kts | 1° |
| 2026-04-26 18:29 | 40.10002 | -73.86810 | 1974 ft | 150 kts | 1° |
| 2026-04-26 18:30 | 40.11040 | -73.86913 | 1968 ft | 150 kts | 1° |
| 2026-04-26 18:30 | 40.12084 | -73.87016 | 1974 ft | 150 kts | 1° |
| 2026-04-26 18:30 | 40.13121 | -73.87117 | 1982 ft | 150 kts | 1° |
| 2026-04-26 18:30 | 40.14166 | -73.87216 | 1978 ft | 150 kts | 1° |
| 2026-04-26 18:31 | 40.15203 | -73.87315 | 1965 ft | 149 kts | 1° |
| 2026-04-26 18:31 | 40.16244 | -73.87413 | 1978 ft | 150 kts | 1° |
| 2026-04-26 18:31 | 40.17284 | -73.87510 | 1974 ft | 150 kts | 1° |
| 2026-04-26 18:31 | 40.18321 | -73.87606 | 1973 ft | 149 kts | 1° |
| 2026-04-26 18:32 | 40.19360 | -73.87702 | 1979 ft | 150 kts | 1° |
| 2026-04-26 18:32 | 40.20402 | -73.87799 | 1977 ft | 150 kts | 1° |
| 2026-04-26 18:32 | 40.21444 | -73.87894 | 1966 ft | 150 kts | 1° |
| 2026-04-26 18:32 | 40.22487 | -73.87990 | 1979 ft | 150 kts | 1° |
| 2026-04-26 18:33 | 40.23534 | -73.88086 | 1979 ft | 151 kts | 1° |
| 2026-04-26 18:33 | 40.24565 | -73.88181 | 1967 ft | 151 kts | 1° |
| 2026-04-26 18:33 | 40.25613 | -73.88277 | 1973 ft | 151 kts | 1° |
| 2026-04-26 18:33 | 40.26647 | -73.88371 | 1980 ft | 151 kts | 1° |
| 2026-04-26 18:34 | 40.27701 | -73.88468 | 1971 ft | 150 kts | 1° |
| 2026-04-26 18:34 | 40.28754 | -73.88563 | 1974 ft | 152 kts | 1° |
| 2026-04-26 18:34 | 40.29809 | -73.88659 | 1975 ft | 152 kts | 1° |
| 2026-04-26 18:34 | 40.30864 | -73.88756 | 1980 ft | 151 kts | 1° |
| 2026-04-26 18:35 | 40.31918 | -73.88852 | 1975 ft | 152 kts | 0° |
| 2026-04-26 18:35 | 40.32978 | -73.88949 | 1979 ft | 152 kts | 1° |
| 2026-04-26 18:35 | 40.34035 | -73.89045 | 1975 ft | 153 kts | 0° |
| 2026-04-26 18:35 | 40.35097 | -73.89142 | 1975 ft | 152 kts | 0° |
| 2026-04-26 18:36 | 40.36139 | -73.89236 | 1963 ft | 152 kts | 360° |
| 2026-04-26 18:36 | 40.37198 | -73.89333 | 1974 ft | 153 kts | 360° |
| 2026-04-26 18:36 | 40.38254 | -73.89431 | 1973 ft | 151 kts | 0° |
| 2026-04-26 18:36 | 40.39307 | -73.89526 | 1960 ft | 152 kts | 359° |
| 2026-04-26 18:37 | 40.40367 | -73.89623 | 1977 ft | 152 kts | 360° |
| 2026-04-26 18:37 | 40.41424 | -73.89720 | 1971 ft | 153 kts | 359° |
| 2026-04-26 18:37 | 40.42483 | -73.89817 | 1975 ft | 152 kts | 360° |
| 2026-04-26 18:37 | 40.43540 | -73.89914 | 1977 ft | 153 kts | 360° |
| 2026-04-26 18:38 | 40.44604 | -73.90011 | 1977 ft | 153 kts | 360° |
| 2026-04-26 18:38 | 40.45662 | -73.90107 | 1974 ft | 153 kts | 359° |
| 2026-04-26 18:38 | 40.46726 | -73.90167 | 1962 ft | 153 kts | 8° |
| 2026-04-26 18:38 | 40.47743 | -73.89853 | 1895 ft | 150 kts | 22° |
| 2026-04-26 18:39 | 40.48702 | -73.89306 | 1779 ft | 150 kts | 26° |
| 2026-04-26 18:39 | 40.49639 | -73.88709 | 1601 ft | 150 kts | 27° |
| 2026-04-26 18:39 | 40.50570 | -73.88089 | 1505 ft | 150 kts | 28° |
| 2026-04-26 18:39 | 40.51494 | -73.87446 | 1392 ft | 150 kts | 31° |
| 2026-04-26 18:40 | 40.52407 | -73.86772 | 1231 ft | 150 kts | 31° |
| 2026-04-26 18:40 | 40.53308 | -73.86090 | 1135 ft | 150 kts | 32° |
| 2026-04-26 18:40 | 40.54209 | -73.85402 | 1146 ft | 150 kts | 32° |
| 2026-04-26 18:40 | 40.55085 | -73.84712 | 1210 ft | 149 kts | 33° |
| 2026-04-26 18:41 | 40.55966 | -73.83981 | 1149 ft | 145 kts | 34° |
| 2026-04-26 18:41 | 40.56783 | -73.83249 | 981 ft | 140 kts | 37° |
| 2026-04-26 18:41 | 40.57584 | -73.82521 | 874 ft | 142 kts | 36° |
| 2026-04-26 18:41 | 40.58307 | -73.81860 | 779 ft | 145 kts | 36° |
| 2026-04-26 18:42 | 40.59029 | -73.81195 | 716 ft | 145 kts | 35° |
| 2026-04-26 18:42 | 40.59873 | -73.80459 | 632 ft | 145 kts | 33° |
| 2026-04-26 18:42 | 40.60720 | -73.79778 | 474 ft | 137 kts | 33° |
| 2026-04-26 18:42 | 40.61518 | -73.79132 | 308 ft | 132 kts | 33° |
| 2026-04-26 18:43 | 40.62280 | -73.78506 | 113 ft | 125 kts | 32° |
| 2026-04-26 18:43 | 40.62962 | -73.77969 | 31 ft | 104 kts | 32° |
| 2026-04-26 18:43 | 40.63469 | -73.77574 | 27 ft | 55 kts | 31° |
| 2026-04-26 18:43 | 40.63658 | -73.77436 | 28 ft | 27 kts | 21° |
| 2026-04-26 18:44 | 40.63773 | -73.77412 | 26 ft | 11 kts | 3° |
| 2026-04-26 18:44 | 40.63851 | -73.77407 | 26 ft | 11 kts | 2° |
| 2026-04-26 18:44 | 40.63911 | -73.77387 | 26 ft | 7 kts | 26° |
| 2026-04-26 18:44 | 40.63954 | -73.77357 | 29 ft | 8 kts | 27° |
| 2026-04-26 18:45 | 40.63987 | -73.77348 | 29 ft | 4 kts | 360° |
| 2026-04-26 18:45 | 40.64015 | -73.77371 | 27 ft | 1 kts | 301° |
| 2026-04-26 18:45 | 40.64013 | -73.77383 | 27 ft | 1 kts | 260° |
| 2026-04-26 18:45 | 40.63977 | -73.77452 | 25 ft | 19 kts | 221° |
| 2026-04-26 18:46 | 40.63861 | -73.77547 | 25 ft | 19 kts | 210° |
| 2026-04-26 18:46 | 40.63748 | -73.77635 | 26 ft | 15 kts | 211° |
| 2026-04-26 18:46 | 40.63738 | -73.77642 | 24 ft | 0 kts | 211° |
| 2026-04-26 18:47 | 40.63722 | -73.77655 | 26 ft | 10 kts | 211° |
| 2026-04-26 18:47 | 40.63607 | -73.77745 | 25 ft | 29 kts | 211° |
| 2026-04-26 18:47 | 40.63463 | -73.77866 | 28 ft | 23 kts | 219° |
| 2026-04-26 18:47 | 40.63422 | -73.78044 | 27 ft | 21 kts | 288° |
| 2026-04-26 18:48 | 40.63487 | -73.78211 | 26 ft | 20 kts | 302° |
| 2026-04-26 18:48 | 40.63515 | -73.78249 | 27 ft | 5 kts | 329° |
| 2026-04-26 18:48 | 40.63569 | -73.78257 | 24 ft | 9 kts | 12° |
| 2026-04-26 18:48 | 40.63637 | -73.78259 | 25 ft | 8 kts | 351° |
| 2026-04-26 18:49 | 40.63705 | -73.78270 | 24 ft | 11 kts | 352° |
| 2026-04-26 18:49 | 40.63795 | -73.78284 | 25 ft | 15 kts | 356° |
| 2026-04-26 18:49 | 40.63826 | -73.78276 | 25 ft | 4 kts | 23° |